sensor_id;sensor_type;location;lat;lon;timestamp;P1;durP1;ratioP1;P2;durP2;ratioP2
77168;SDS011;66281;45.114;20.730;2023-03-24T00:03:33;18.35;;;11.35;;
77168;SDS011;66281;45.114;20.730;2023-03-24T00:13:34;18.83;;;11.10;;
77168;SDS011;66281;45.114;20.730;2023-03-24T00:23:35;18.87;;;10.43;;
77168;SDS011;66281;45.114;20.730;2023-03-24T00:33:35;16.93;;;10.47;;
77168;SDS011;66281;45.114;20.730;2023-03-24T00:43:36;16.80;;;11.93;;
77168;SDS011;66281;45.114;20.730;2023-03-24T00:53:37;16.67;;;10.77;;
77168;SDS011;66281;45.114;20.730;2023-03-24T01:03:37;16.45;;;10.02;;
77168;SDS011;66281;45.114;20.730;2023-03-24T01:13:38;14.98;;;10.05;;
77168;SDS011;66281;45.114;20.730;2023-03-24T01:23:38;14.93;;;10.13;;
77168;SDS011;66281;45.114;20.730;2023-03-24T01:33:39;18.30;;;10.63;;
77168;SDS011;66281;45.114;20.730;2023-03-24T01:43:40;19.50;;;10.85;;
77168;SDS011;66281;45.114;20.730;2023-03-24T01:53:45;15.10;;;9.23;;
77168;SDS011;66281;45.114;20.730;2023-03-24T02:03:50;16.73;;;10.13;;
77168;SDS011;66281;45.114;20.730;2023-03-24T02:13:51;16.73;;;9.97;;
77168;SDS011;66281;45.114;20.730;2023-03-24T02:23:55;14.00;;;9.37;;
77168;SDS011;66281;45.114;20.730;2023-03-24T02:44:26;14.70;;;10.17;;
77168;SDS011;66281;45.114;20.730;2023-03-24T02:54:39;16.67;;;9.87;;
77168;SDS011;66281;45.114;20.730;2023-03-24T03:04:48;17.25;;;10.35;;
77168;SDS011;66281;45.114;20.730;2023-03-24T03:14:54;16.17;;;11.30;;
77168;SDS011;66281;45.114;20.730;2023-03-24T03:24:57;14.87;;;9.87;;
77168;SDS011;66281;45.114;20.730;2023-03-24T03:35:13;21.65;;;13.75;;
77168;SDS011;66281;45.114;20.730;2023-03-24T03:45:18;15.20;;;9.87;;
77168;SDS011;66281;45.114;20.730;2023-03-24T03:55:19;14.63;;;9.37;;
77168;SDS011;66281;45.114;20.730;2023-03-24T04:26:30;14.30;;;8.83;;
77168;SDS011;66281;45.114;20.730;2023-03-24T04:36:37;16.20;;;10.40;;
77168;SDS011;66281;45.114;20.730;2023-03-24T04:47:09;14.38;;;9.02;;
77168;SDS011;66281;45.114;20.730;2023-03-24T04:57:12;15.77;;;9.07;;
77168;SDS011;66281;45.114;20.730;2023-03-24T05:07:16;15.10;;;8.57;;
77168;SDS011;66281;45.114;20.730;2023-03-24T05:17:18;13.05;;;8.93;;
77168;SDS011;66281;45.114;20.730;2023-03-24T05:27:19;15.70;;;9.47;;
77168;SDS011;66281;45.114;20.730;2023-03-24T05:37:20;15.03;;;9.07;;
77168;SDS011;66281;45.114;20.730;2023-03-24T05:47:24;13.67;;;9.50;;
77168;SDS011;66281;45.114;20.730;2023-03-24T05:57:25;15.23;;;9.03;;
77168;SDS011;66281;45.114;20.730;2023-03-24T06:07:44;13.07;;;9.63;;
77168;SDS011;66281;45.114;20.730;2023-03-24T06:17:44;12.90;;;8.98;;
77168;SDS011;66281;45.114;20.730;2023-03-24T06:27:56;10.77;;;8.30;;
77168;SDS011;66281;45.114;20.730;2023-03-24T06:37:58;11.93;;;9.07;;
77168;SDS011;66281;45.114;20.730;2023-03-24T06:47:59;10.50;;;8.00;;
77168;SDS011;66281;45.114;20.730;2023-03-24T06:57:59;10.73;;;8.60;;
77168;SDS011;66281;45.114;20.730;2023-03-24T07:08:06;10.65;;;8.85;;
77168;SDS011;66281;45.114;20.730;2023-03-24T07:18:11;9.93;;;8.30;;
77168;SDS011;66281;45.114;20.730;2023-03-24T07:28:16;20.37;;;12.97;;
77168;SDS011;66281;45.114;20.730;2023-03-24T07:38:17;17.00;;;11.83;;
77168;SDS011;66281;45.114;20.730;2023-03-24T07:48:22;35.90;;;19.13;;
77168;SDS011;66281;45.114;20.730;2023-03-24T07:58:24;18.33;;;13.30;;
77168;SDS011;66281;45.114;20.730;2023-03-24T08:08:47;14.68;;;9.45;;
77168;SDS011;66281;45.114;20.730;2023-03-24T08:18:48;15.38;;;8.85;;
77168;SDS011;66281;45.114;20.730;2023-03-24T08:28:48;8.87;;;7.93;;
77168;SDS011;66281;45.114;20.730;2023-03-24T08:38:49;11.60;;;7.07;;
77168;SDS011;66281;45.114;20.730;2023-03-24T08:48:49;14.18;;;7.20;;
77168;SDS011;66281;45.114;20.730;2023-03-24T08:58:50;12.88;;;7.80;;
77168;SDS011;66281;45.114;20.730;2023-03-24T09:08:50;14.70;;;8.33;;
77168;SDS011;66281;45.114;20.730;2023-03-24T09:18:51;11.07;;;6.95;;
77168;SDS011;66281;45.114;20.730;2023-03-24T09:28:51;12.00;;;8.93;;
77168;SDS011;66281;45.114;20.730;2023-03-24T09:38:52;12.47;;;8.40;;
77168;SDS011;66281;45.114;20.730;2023-03-24T09:48:53;11.65;;;7.38;;
77168;SDS011;66281;45.114;20.730;2023-03-24T09:59:02;11.97;;;7.57;;
77168;SDS011;66281;45.114;20.730;2023-03-24T10:29:46;7.38;;;5.93;;
77168;SDS011;66281;45.114;20.730;2023-03-24T10:39:47;6.63;;;5.20;;
77168;SDS011;66281;45.114;20.730;2023-03-24T10:50:06;7.27;;;5.70;;
77168;SDS011;66281;45.114;20.730;2023-03-24T11:00:08;5.50;;;4.93;;
77168;SDS011;66281;45.114;20.730;2023-03-24T11:10:24;5.47;;;4.80;;
77168;SDS011;66281;45.114;20.730;2023-03-24T11:20:35;8.73;;;4.68;;
77168;SDS011;66281;45.114;20.730;2023-03-24T11:30:47;8.13;;;5.20;;
77168;SDS011;66281;45.114;20.730;2023-03-24T11:40:54;5.23;;;4.73;;
77168;SDS011;66281;45.114;20.730;2023-03-24T11:50:55;35.10;;;6.67;;
77168;SDS011;66281;45.114;20.730;2023-03-24T12:42:25;9.50;;;5.63;;
77168;SDS011;66281;45.114;20.730;2023-03-24T13:02:53;4.78;;;4.10;;
77168;SDS011;66281;45.114;20.730;2023-03-24T13:33:23;6.30;;;4.77;;
77168;SDS011;66281;45.114;20.730;2023-03-24T13:43:30;7.07;;;4.33;;
77168;SDS011;66281;45.114;20.730;2023-03-24T13:53:33;7.05;;;4.57;;
77168;SDS011;66281;45.114;20.730;2023-03-24T14:04:25;5.23;;;4.63;;
77168;SDS011;66281;45.114;20.730;2023-03-24T14:14:19;7.13;;;4.80;;
77168;SDS011;66281;45.114;20.730;2023-03-24T14:24:25;7.80;;;4.70;;
77168;SDS011;66281;45.114;20.730;2023-03-24T14:34:29;9.17;;;5.00;;
77168;SDS011;66281;45.114;20.730;2023-03-24T14:55:08;5.13;;;3.85;;
77168;SDS011;66281;45.114;20.730;2023-03-24T15:25:24;5.90;;;4.28;;
77168;SDS011;66281;45.114;20.730;2023-03-24T15:35:26;4.50;;;3.90;;
77168;SDS011;66281;45.114;20.730;2023-03-24T15:45:33;16.88;;;8.32;;
77168;SDS011;66281;45.114;20.730;2023-03-24T15:55:38;5.50;;;4.60;;
77168;SDS011;66281;45.114;20.730;2023-03-24T16:05:44;4.33;;;3.93;;
77168;SDS011;66281;45.114;20.730;2023-03-24T16:25:56;17.07;;;6.17;;
77168;SDS011;66281;45.114;20.730;2023-03-24T16:35:56;18.85;;;6.97;;
77168;SDS011;66281;45.114;20.730;2023-03-24T16:45:57;17.57;;;4.20;;
77168;SDS011;66281;45.114;20.730;2023-03-24T16:55:58;36.07;;;15.67;;
77168;SDS011;66281;45.114;20.730;2023-03-24T17:05:58;20.95;;;14.05;;
77168;SDS011;66281;45.114;20.730;2023-03-24T17:15:58;27.52;;;13.27;;
77168;SDS011;66281;45.114;20.730;2023-03-24T17:25:59;29.67;;;18.20;;
77168;SDS011;66281;45.114;20.730;2023-03-24T17:35:59;49.15;;;28.17;;
77168;SDS011;66281;45.114;20.730;2023-03-24T17:46:00;84.22;;;45.03;;
77168;SDS011;66281;45.114;20.730;2023-03-24T17:56:01;38.47;;;22.60;;
77168;SDS011;66281;45.114;20.730;2023-03-24T18:06:06;32.77;;;21.20;;
77168;SDS011;66281;45.114;20.730;2023-03-24T18:16:08;39.47;;;22.80;;
77168;SDS011;66281;45.114;20.730;2023-03-24T18:26:09;39.93;;;20.07;;
77168;SDS011;66281;45.114;20.730;2023-03-24T18:36:10;31.10;;;17.13;;
77168;SDS011;66281;45.114;20.730;2023-03-24T18:46:12;47.97;;;24.80;;
77168;SDS011;66281;45.114;20.730;2023-03-24T18:56:12;18.83;;;11.00;;
77168;SDS011;66281;45.114;20.730;2023-03-24T19:06:13;43.63;;;19.50;;
77168;SDS011;66281;45.114;20.730;2023-03-24T19:16:14;66.97;;;26.37;;
77168;SDS011;66281;45.114;20.730;2023-03-24T19:26:15;46.30;;;22.30;;
77168;SDS011;66281;45.114;20.730;2023-03-24T19:36:16;31.10;;;15.73;;
77168;SDS011;66281;45.114;20.730;2023-03-24T19:46:17;17.02;;;10.27;;
77168;SDS011;66281;45.114;20.730;2023-03-24T19:56:18;14.80;;;9.37;;
77168;SDS011;66281;45.114;20.730;2023-03-24T20:06:18;13.40;;;9.93;;
77168;SDS011;66281;45.114;20.730;2023-03-24T20:16:19;11.10;;;9.15;;
77168;SDS011;66281;45.114;20.730;2023-03-24T20:26:19;11.47;;;9.00;;
77168;SDS011;66281;45.114;20.730;2023-03-24T20:36:20;14.20;;;10.03;;
77168;SDS011;66281;45.114;20.730;2023-03-24T20:46:20;17.77;;;11.45;;
77168;SDS011;66281;45.114;20.730;2023-03-24T20:56:21;20.88;;;13.30;;
77168;SDS011;66281;45.114;20.730;2023-03-24T21:06:21;21.33;;;13.90;;
77168;SDS011;66281;45.114;20.730;2023-03-24T21:16:22;29.63;;;16.88;;
77168;SDS011;66281;45.114;20.730;2023-03-24T21:26:23;25.23;;;17.55;;
77168;SDS011;66281;45.114;20.730;2023-03-24T21:36:24;31.03;;;19.27;;
77168;SDS011;66281;45.114;20.730;2023-03-24T21:46:25;25.88;;;15.40;;
77168;SDS011;66281;45.114;20.730;2023-03-24T21:56:25;21.33;;;14.47;;
77168;SDS011;66281;45.114;20.730;2023-03-24T22:06:26;24.40;;;13.45;;
77168;SDS011;66281;45.114;20.730;2023-03-24T22:16:26;27.03;;;14.00;;
77168;SDS011;66281;45.114;20.730;2023-03-24T22:26:27;14.82;;;9.70;;
77168;SDS011;66281;45.114;20.730;2023-03-24T22:36:27;19.08;;;9.50;;
77168;SDS011;66281;45.114;20.730;2023-03-24T22:46:28;15.23;;;9.40;;
77168;SDS011;66281;45.114;20.730;2023-03-24T22:56:28;14.40;;;8.65;;
77168;SDS011;66281;45.114;20.730;2023-03-24T23:06:29;16.50;;;10.87;;
77168;SDS011;66281;45.114;20.730;2023-03-24T23:16:30;18.92;;;11.43;;
77168;SDS011;66281;45.114;20.730;2023-03-24T23:26:32;15.63;;;9.32;;
77168;SDS011;66281;45.114;20.730;2023-03-24T23:36:32;16.20;;;10.13;;
77168;SDS011;66281;45.114;20.730;2023-03-24T23:46:32;22.27;;;11.80;;
77168;SDS011;66281;45.114;20.730;2023-03-24T23:56:33;17.77;;;10.73;;
